Richardson's Hourly Summary for Monday, July 9, 2018
Hour Temp
(f)
RH
(%)
Solar Rad.
(MJ/m2)
Rainfall
(in)
Wind
(mph)
7/9/2018 12:00 AM 81 62 0 0 2.79
7/9/2018 1:00 AM 80 65 0 0 2.83
7/9/2018 2:00 AM 79 70 0 0 2.48
7/9/2018 3:00 AM 78 73 0 0 1.51
7/9/2018 4:00 AM 77 76 0 0 2.58
7/9/2018 5:00 AM 77 76 0 0 2.82
7/9/2018 6:00 AM 77 77 0 0 1.77
7/9/2018 7:00 AM 76 78 0.04 0 0.45
7/9/2018 8:00 AM 77 72 0.32 0 1.29
7/9/2018 9:00 AM 80 66 1.08 0 1.37
7/9/2018 10:00 AM 83 60 1.79 0 1.62
7/9/2018 11:00 AM 85 55 1.98 0 2.6
7/9/2018 12:00 PM 85 54 2.27 0 3.75
7/9/2018 1:00 PM 88 47 3.51 0 3.9
7/9/2018 2:00 PM 89 46 3.36 0 6.4
7/9/2018 3:00 PM 88 46 1.86 0 6.16
7/9/2018 4:00 PM 86 54 0.43 0 3.57
7/9/2018 5:00 PM 85 55 0.55 0 1.52
7/9/2018 6:00 PM 87 54 1.15 0 3.28
7/9/2018 7:00 PM 85 54 0.73 0.02 6.02
7/9/2018 8:00 PM 81 64 0.28 0.01 5.34
7/9/2018 9:00 PM 81 65 0.05 0 4
7/9/2018 10:00 PM 80 69 0 0 3.28
7/9/2018 11:00 PM 79 72 0 0 3.06
Data Summary 81 62 19.40 0.03 3.10